sensor_id;sensor_type;location;lat;lon;timestamp;P1;durP1;ratioP1;P2;durP2;ratioP2
40122;SDS011;25832;45.490;4.912;2023-04-01T00:01:04;10.15;;;2.08;;
40122;SDS011;25832;45.490;4.912;2023-04-01T00:03:31;8.70;;;2.10;;
40122;SDS011;25832;45.490;4.912;2023-04-01T00:05:58;6.43;;;2.03;;
40122;SDS011;25832;45.490;4.912;2023-04-01T00:08:25;7.45;;;2.03;;
40122;SDS011;25832;45.490;4.912;2023-04-01T00:10:51;4.75;;;1.63;;
40122;SDS011;25832;45.490;4.912;2023-04-01T00:13:17;8.52;;;1.80;;
40122;SDS011;25832;45.490;4.912;2023-04-01T00:15:43;12.77;;;2.58;;
40122;SDS011;25832;45.490;4.912;2023-04-01T00:18:10;8.77;;;1.60;;
40122;SDS011;25832;45.490;4.912;2023-04-01T00:20:36;8.35;;;1.58;;
40122;SDS011;25832;45.490;4.912;2023-04-01T00:23:02;9.20;;;2.17;;
40122;SDS011;25832;45.490;4.912;2023-04-01T00:25:29;6.85;;;3.75;;
40122;SDS011;25832;45.490;4.912;2023-04-01T00:27:55;7.63;;;1.50;;
40122;SDS011;25832;45.490;4.912;2023-04-01T00:30:20;12.13;;;2.22;;
40122;SDS011;25832;45.490;4.912;2023-04-01T00:32:46;6.70;;;2.20;;
40122;SDS011;25832;45.490;4.912;2023-04-01T00:35:16;5.40;;;1.60;;
40122;SDS011;25832;45.490;4.912;2023-04-01T00:37:41;11.40;;;3.17;;
40122;SDS011;25832;45.490;4.912;2023-04-01T00:40:07;9.85;;;2.10;;
40122;SDS011;25832;45.490;4.912;2023-04-01T00:42:45;6.93;;;2.03;;
40122;SDS011;25832;45.490;4.912;2023-04-01T00:45:23;7.38;;;1.60;;
40122;SDS011;25832;45.490;4.912;2023-04-01T00:48:14;7.60;;;1.42;;
40122;SDS011;25832;45.490;4.912;2023-04-01T00:50:45;8.23;;;2.25;;
40122;SDS011;25832;45.490;4.912;2023-04-01T00:53:14;10.40;;;1.85;;
40122;SDS011;25832;45.490;4.912;2023-04-01T00:55:42;4.30;;;1.55;;
40122;SDS011;25832;45.490;4.912;2023-04-01T00:58:14;8.57;;;2.63;;
40122;SDS011;25832;45.490;4.912;2023-04-01T01:00:43;5.30;;;1.87;;
40122;SDS011;25832;45.490;4.912;2023-04-01T01:03:12;9.10;;;1.67;;
40122;SDS011;25832;45.490;4.912;2023-04-01T01:08:57;7.03;;;1.95;;
40122;SDS011;25832;45.490;4.912;2023-04-01T01:11:12;11.15;;;2.15;;
40122;SDS011;25832;45.490;4.912;2023-04-01T01:13:43;3.00;;;1.27;;
40122;SDS011;25832;45.490;4.912;2023-04-01T01:16:24;5.50;;;1.65;;
40122;SDS011;25832;45.490;4.912;2023-04-01T01:24:41;6.40;;;1.60;;
40122;SDS011;25832;45.490;4.912;2023-04-01T01:27:27;10.02;;;2.28;;
40122;SDS011;25832;45.490;4.912;2023-04-01T01:30:04;9.10;;;2.20;;
40122;SDS011;25832;45.490;4.912;2023-04-01T01:32:43;11.00;;;2.13;;
40122;SDS011;25832;45.490;4.912;2023-04-01T01:35:43;4.90;;;1.30;;
40122;SDS011;25832;45.490;4.912;2023-04-01T01:38:14;8.82;;;1.67;;
40122;SDS011;25832;45.490;4.912;2023-04-01T01:40:47;6.45;;;1.67;;
40122;SDS011;25832;45.490;4.912;2023-04-01T01:43:21;6.72;;;1.80;;
40122;SDS011;25832;45.490;4.912;2023-04-01T01:45:51;5.05;;;1.50;;
40122;SDS011;25832;45.490;4.912;2023-04-01T01:48:20;11.32;;;2.03;;
40122;SDS011;25832;45.490;4.912;2023-04-01T01:50:48;4.15;;;1.38;;
40122;SDS011;25832;45.490;4.912;2023-04-01T01:53:15;9.10;;;1.48;;
40122;SDS011;25832;45.490;4.912;2023-04-01T01:55:42;9.00;;;1.85;;
40122;SDS011;25832;45.490;4.912;2023-04-01T01:58:31;7.93;;;1.23;;
40122;SDS011;25832;45.490;4.912;2023-04-01T02:01:02;7.35;;;1.92;;
40122;SDS011;25832;45.490;4.912;2023-04-01T02:03:31;7.50;;;1.63;;
40122;SDS011;25832;45.490;4.912;2023-04-01T02:06:01;11.38;;;2.15;;
40122;SDS011;25832;45.490;4.912;2023-04-01T02:08:34;4.68;;;1.10;;
40122;SDS011;25832;45.490;4.912;2023-04-01T02:11:09;4.93;;;0.95;;
40122;SDS011;25832;45.490;4.912;2023-04-01T02:16:13;3.50;;;1.67;;
40122;SDS011;25832;45.490;4.912;2023-04-01T02:18:46;2.53;;;0.93;;
40122;SDS011;25832;45.490;4.912;2023-04-01T02:21:15;3.03;;;0.65;;
40122;SDS011;25832;45.490;4.912;2023-04-01T02:23:43;6.07;;;1.17;;
40122;SDS011;25832;45.490;4.912;2023-04-01T02:26:11;5.10;;;1.40;;
40122;SDS011;25832;45.490;4.912;2023-04-01T02:28:38;2.15;;;0.75;;
40122;SDS011;25832;45.490;4.912;2023-04-01T02:31:06;4.88;;;1.23;;
40122;SDS011;25832;45.490;4.912;2023-04-01T02:33:38;3.42;;;0.88;;
40122;SDS011;25832;45.490;4.912;2023-04-01T02:36:04;6.30;;;1.30;;
40122;SDS011;25832;45.490;4.912;2023-04-01T02:38:30;2.58;;;0.90;;
40122;SDS011;25832;45.490;4.912;2023-04-01T02:41:00;4.13;;;0.75;;
40122;SDS011;25832;45.490;4.912;2023-04-01T02:43:27;5.53;;;1.35;;
40122;SDS011;25832;45.490;4.912;2023-04-01T02:45:53;6.13;;;1.02;;
40122;SDS011;25832;45.490;4.912;2023-04-01T02:48:19;3.55;;;0.95;;
40122;SDS011;25832;45.490;4.912;2023-04-01T02:50:45;6.88;;;0.82;;
40122;SDS011;25832;45.490;4.912;2023-04-01T02:53:11;8.30;;;1.02;;
40122;SDS011;25832;45.490;4.912;2023-04-01T02:55:37;2.38;;;0.95;;
40122;SDS011;25832;45.490;4.912;2023-04-01T02:58:02;0.98;;;0.57;;
40122;SDS011;25832;45.490;4.912;2023-04-01T03:00:28;1.83;;;0.73;;
40122;SDS011;25832;45.490;4.912;2023-04-01T03:02:55;2.75;;;0.90;;
40122;SDS011;25832;45.490;4.912;2023-04-01T03:05:21;5.63;;;1.40;;
40122;SDS011;25832;45.490;4.912;2023-04-01T03:07:47;5.25;;;1.02;;
40122;SDS011;25832;45.490;4.912;2023-04-01T03:10:13;2.53;;;0.75;;
40122;SDS011;25832;45.490;4.912;2023-04-01T03:12:39;5.03;;;0.75;;
40122;SDS011;25832;45.490;4.912;2023-04-01T03:15:05;4.75;;;1.10;;
40122;SDS011;25832;45.490;4.912;2023-04-01T03:17:31;4.15;;;0.73;;
40122;SDS011;25832;45.490;4.912;2023-04-01T03:19:57;3.55;;;0.98;;
40122;SDS011;25832;45.490;4.912;2023-04-01T03:22:22;3.38;;;0.73;;
40122;SDS011;25832;45.490;4.912;2023-04-01T03:24:48;3.40;;;0.80;;
40122;SDS011;25832;45.490;4.912;2023-04-01T03:27:14;3.85;;;0.93;;
40122;SDS011;25832;45.490;4.912;2023-04-01T03:29:40;3.45;;;1.40;;
40122;SDS011;25832;45.490;4.912;2023-04-01T03:32:06;6.32;;;0.75;;
40122;SDS011;25832;45.490;4.912;2023-04-01T03:34:32;3.75;;;0.90;;
40122;SDS011;25832;45.490;4.912;2023-04-01T03:36:58;3.67;;;0.82;;
40122;SDS011;25832;45.490;4.912;2023-04-01T03:39:24;3.17;;;1.00;;
40122;SDS011;25832;45.490;4.912;2023-04-01T03:41:50;2.55;;;0.77;;
40122;SDS011;25832;45.490;4.912;2023-04-01T03:44:16;4.25;;;1.50;;
40122;SDS011;25832;45.490;4.912;2023-04-01T03:46:41;5.15;;;1.10;;
40122;SDS011;25832;45.490;4.912;2023-04-01T03:49:08;6.25;;;1.05;;
40122;SDS011;25832;45.490;4.912;2023-04-01T03:51:37;4.03;;;1.00;;
40122;SDS011;25832;45.490;4.912;2023-04-01T03:54:03;4.80;;;1.25;;
40122;SDS011;25832;45.490;4.912;2023-04-01T03:56:29;9.13;;;1.75;;
40122;SDS011;25832;45.490;4.912;2023-04-01T03:58:55;5.55;;;1.27;;
40122;SDS011;25832;45.490;4.912;2023-04-01T04:01:21;4.35;;;1.17;;
40122;SDS011;25832;45.490;4.912;2023-04-01T04:03:48;5.72;;;1.02;;
40122;SDS011;25832;45.490;4.912;2023-04-01T04:06:15;4.70;;;1.20;;
40122;SDS011;25832;45.490;4.912;2023-04-01T04:08:42;5.38;;;1.10;;
40122;SDS011;25832;45.490;4.912;2023-04-01T04:11:07;2.90;;;1.08;;
40122;SDS011;25832;45.490;4.912;2023-04-01T04:13:33;5.15;;;1.42;;
40122;SDS011;25832;45.490;4.912;2023-04-01T04:16:00;6.15;;;0.90;;
40122;SDS011;25832;45.490;4.912;2023-04-01T04:18:27;5.18;;;1.35;;
40122;SDS011;25832;45.490;4.912;2023-04-01T04:20:52;1.65;;;0.77;;
40122;SDS011;25832;45.490;4.912;2023-04-01T04:23:18;5.25;;;0.80;;
40122;SDS011;25832;45.490;4.912;2023-04-01T04:25:57;7.50;;;1.20;;
40122;SDS011;25832;45.490;4.912;2023-04-01T04:28:25;6.28;;;1.17;;
40122;SDS011;25832;45.490;4.912;2023-04-01T04:30:51;3.13;;;1.17;;
40122;SDS011;25832;45.490;4.912;2023-04-01T04:33:17;3.90;;;0.98;;
40122;SDS011;25832;45.490;4.912;2023-04-01T04:35:43;6.70;;;1.15;;
40122;SDS011;25832;45.490;4.912;2023-04-01T04:38:09;7.72;;;1.20;;
40122;SDS011;25832;45.490;4.912;2023-04-01T04:40:38;5.25;;;1.13;;
40122;SDS011;25832;45.490;4.912;2023-04-01T04:45:31;2.35;;;1.20;;
40122;SDS011;25832;45.490;4.912;2023-04-01T04:47:57;5.75;;;1.13;;
40122;SDS011;25832;45.490;4.912;2023-04-01T04:50:23;2.47;;;1.00;;
40122;SDS011;25832;45.490;4.912;2023-04-01T04:52:50;4.18;;;1.20;;
40122;SDS011;25832;45.490;4.912;2023-04-01T04:55:16;4.57;;;1.33;;
40122;SDS011;25832;45.490;4.912;2023-04-01T04:57:42;4.40;;;1.00;;
40122;SDS011;25832;45.490;4.912;2023-04-01T05:00:08;3.78;;;1.02;;
40122;SDS011;25832;45.490;4.912;2023-04-01T05:02:35;2.97;;;1.00;;
40122;SDS011;25832;45.490;4.912;2023-04-01T05:05:00;4.63;;;1.00;;
40122;SDS011;25832;45.490;4.912;2023-04-01T05:07:26;3.47;;;1.10;;
40122;SDS011;25832;45.490;4.912;2023-04-01T05:09:52;3.88;;;0.90;;
40122;SDS011;25832;45.490;4.912;2023-04-01T05:12:17;2.65;;;1.52;;
40122;SDS011;25832;45.490;4.912;2023-04-01T05:14:43;5.60;;;0.90;;
40122;SDS011;25832;45.490;4.912;2023-04-01T05:17:09;4.28;;;1.30;;
40122;SDS011;25832;45.490;4.912;2023-04-01T05:19:36;4.18;;;1.58;;
40122;SDS011;25832;45.490;4.912;2023-04-01T05:22:02;2.30;;;0.73;;
40122;SDS011;25832;45.490;4.912;2023-04-01T05:24:28;2.72;;;1.10;;
40122;SDS011;25832;45.490;4.912;2023-04-01T05:26:54;3.50;;;1.35;;
40122;SDS011;25832;45.490;4.912;2023-04-01T05:29:21;5.68;;;1.50;;
40122;SDS011;25832;45.490;4.912;2023-04-01T05:31:46;5.20;;;0.93;;
40122;SDS011;25832;45.490;4.912;2023-04-01T05:34:12;4.03;;;1.05;;
40122;SDS011;25832;45.490;4.912;2023-04-01T05:36:38;8.13;;;1.60;;
40122;SDS011;25832;45.490;4.912;2023-04-01T05:39:04;6.18;;;2.10;;
40122;SDS011;25832;45.490;4.912;2023-04-01T05:41:30;6.40;;;1.23;;
40122;SDS011;25832;45.490;4.912;2023-04-01T05:43:56;6.50;;;1.45;;
40122;SDS011;25832;45.490;4.912;2023-04-01T05:46:21;5.57;;;1.20;;
40122;SDS011;25832;45.490;4.912;2023-04-01T05:48:47;7.63;;;1.77;;
40122;SDS011;25832;45.490;4.912;2023-04-01T05:51:13;7.43;;;1.70;;
40122;SDS011;25832;45.490;4.912;2023-04-01T05:53:40;4.47;;;1.55;;
40122;SDS011;25832;45.490;4.912;2023-04-01T05:56:06;5.97;;;0.98;;
40122;SDS011;25832;45.490;4.912;2023-04-01T05:58:34;4.32;;;1.42;;
40122;SDS011;25832;45.490;4.912;2023-04-01T06:01:01;6.22;;;2.33;;
40122;SDS011;25832;45.490;4.912;2023-04-01T06:03:34;5.25;;;1.52;;
40122;SDS011;25832;45.490;4.912;2023-04-01T06:06:00;4.57;;;0.90;;
40122;SDS011;25832;45.490;4.912;2023-04-01T06:08:26;2.97;;;1.10;;
40122;SDS011;25832;45.490;4.912;2023-04-01T06:13:59;145.27;;;114.97;;
40122;SDS011;25832;45.490;4.912;2023-04-01T06:16:44;14.07;;;8.80;;
40122;SDS011;25832;45.490;4.912;2023-04-01T06:22:23;6.28;;;2.05;;
40122;SDS011;25832;45.490;4.912;2023-04-01T06:44:55;4.03;;;1.58;;
40122;SDS011;25832;45.490;4.912;2023-04-01T06:47:49;4.00;;;0.98;;
40122;SDS011;25832;45.490;4.912;2023-04-01T06:56:14;6.72;;;5.07;;
40122;SDS011;25832;45.490;4.912;2023-04-01T06:58:50;4.15;;;1.58;;
40122;SDS011;25832;45.490;4.912;2023-04-01T07:01:40;4.28;;;1.48;;
40122;SDS011;25832;45.490;4.912;2023-04-01T07:04:36;3.65;;;1.40;;
40122;SDS011;25832;45.490;4.912;2023-04-01T07:07:16;130.68;;;54.63;;
40122;SDS011;25832;45.490;4.912;2023-04-01T07:09:49;305.17;;;123.80;;
40122;SDS011;25832;45.490;4.912;2023-04-01T07:12:22;228.60;;;95.35;;
40122;SDS011;25832;45.490;4.912;2023-04-01T07:15:00;172.63;;;64.30;;
40122;SDS011;25832;45.490;4.912;2023-04-01T07:17:52;50.95;;;23.42;;
40122;SDS011;25832;45.490;4.912;2023-04-01T07:20:23;21.23;;;12.93;;
40122;SDS011;25832;45.490;4.912;2023-04-01T07:22:56;11.65;;;5.80;;
40122;SDS011;25832;45.490;4.912;2023-04-01T07:25:25;11.05;;;5.75;;
40122;SDS011;25832;45.490;4.912;2023-04-01T07:28:32;4.10;;;1.75;;
40122;SDS011;25832;45.490;4.912;2023-04-01T07:33:50;3.67;;;1.63;;
40122;SDS011;25832;45.490;4.912;2023-04-01T07:36:39;7.38;;;3.28;;
40122;SDS011;25832;45.490;4.912;2023-04-01T07:44:33;11.15;;;5.63;;
40122;SDS011;25832;45.490;4.912;2023-04-01T07:50:43;64.35;;;57.30;;
40122;SDS011;25832;45.490;4.912;2023-04-01T07:53:04;27.70;;;24.60;;
40122;SDS011;25832;45.490;4.912;2023-04-01T07:56:09;3.53;;;2.55;;
40122;SDS011;25832;45.490;4.912;2023-04-01T08:04:10;7.78;;;3.58;;
40122;SDS011;25832;45.490;4.912;2023-04-01T08:17:51;3.42;;;1.10;;
40122;SDS011;25832;45.490;4.912;2023-04-01T08:20:34;1.98;;;0.68;;
40122;SDS011;25832;45.490;4.912;2023-04-01T08:28:41;1.40;;;0.60;;
40122;SDS011;25832;45.490;4.912;2023-04-01T08:33:47;3.30;;;1.30;;
40122;SDS011;25832;45.490;4.912;2023-04-01T08:36:28;3.90;;;1.95;;
40122;SDS011;25832;45.490;4.912;2023-04-01T08:39:15;2.15;;;0.80;;
40122;SDS011;25832;45.490;4.912;2023-04-01T08:41:53;3.63;;;0.95;;
40122;SDS011;25832;45.490;4.912;2023-04-01T08:59:24;2.38;;;0.85;;
40122;SDS011;25832;45.490;4.912;2023-04-01T09:05:17;2.05;;;1.23;;
40122;SDS011;25832;45.490;4.912;2023-04-01T09:11:22;2.25;;;0.80;;
40122;SDS011;25832;45.490;4.912;2023-04-01T09:14:07;1.30;;;0.55;;
40122;SDS011;25832;45.490;4.912;2023-04-01T09:35:38;6.18;;;1.45;;
40122;SDS011;25832;45.490;4.912;2023-04-01T09:51:59;4.82;;;0.88;;
40122;SDS011;25832;45.490;4.912;2023-04-01T09:55:36;3.40;;;1.48;;
40122;SDS011;25832;45.490;4.912;2023-04-01T10:08:44;1.65;;;0.82;;
40122;SDS011;25832;45.490;4.912;2023-04-01T10:22:40;3.00;;;1.00;;
40122;SDS011;25832;45.490;4.912;2023-04-01T10:25:41;1.67;;;0.95;;
40122;SDS011;25832;45.490;4.912;2023-04-01T10:28:46;2.83;;;0.90;;
40122;SDS011;25832;45.490;4.912;2023-04-01T10:31:42;3.60;;;1.02;;
40122;SDS011;25832;45.490;4.912;2023-04-01T10:36:56;3.33;;;0.90;;
40122;SDS011;25832;45.490;4.912;2023-04-01T10:39:34;5.03;;;1.65;;
40122;SDS011;25832;45.490;4.912;2023-04-01T11:26:14;5.63;;;1.02;;
40122;SDS011;25832;45.490;4.912;2023-04-01T11:36:34;2.10;;;0.70;;
40122;SDS011;25832;45.490;4.912;2023-04-01T11:39:31;1.13;;;0.40;;
40122;SDS011;25832;45.490;4.912;2023-04-01T11:45:15;2.35;;;0.70;;
40122;SDS011;25832;45.490;4.912;2023-04-01T11:53:33;2.25;;;0.60;;
40122;SDS011;25832;45.490;4.912;2023-04-01T12:10:29;2.13;;;0.85;;
40122;SDS011;25832;45.490;4.912;2023-04-01T12:18:17;1.27;;;0.70;;
40122;SDS011;25832;45.490;4.912;2023-04-01T12:21:03;2.15;;;0.80;;
40122;SDS011;25832;45.490;4.912;2023-04-01T12:23:55;48.45;;;22.10;;
40122;SDS011;25832;45.490;4.912;2023-04-01T12:32:01;47.58;;;32.10;;
40122;SDS011;25832;45.490;4.912;2023-04-01T12:34:44;22.48;;;12.88;;
40122;SDS011;25832;45.490;4.912;2023-04-01T12:37:32;17.02;;;12.60;;
40122;SDS011;25832;45.490;4.912;2023-04-01T12:45:32;2.05;;;0.93;;
40122;SDS011;25832;45.490;4.912;2023-04-01T12:48:37;1.52;;;0.85;;
40122;SDS011;25832;45.490;4.912;2023-04-01T12:53:48;5.18;;;0.90;;
40122;SDS011;25832;45.490;4.912;2023-04-01T12:59:26;2.17;;;1.02;;
40122;SDS011;25832;45.490;4.912;2023-04-01T13:10:31;4.35;;;0.50;;
40122;SDS011;25832;45.490;4.912;2023-04-01T13:15:51;3.40;;;0.55;;
40122;SDS011;25832;45.490;4.912;2023-04-01T13:26:13;2.38;;;0.90;;
40122;SDS011;25832;45.490;4.912;2023-04-01T13:28:40;4.88;;;1.30;;
40122;SDS011;25832;45.490;4.912;2023-04-01T13:37:02;3.15;;;1.52;;
40122;SDS011;25832;45.490;4.912;2023-04-01T13:42:30;5.45;;;4.63;;
40122;SDS011;25832;45.490;4.912;2023-04-01T13:45:12;20.38;;;16.50;;
40122;SDS011;25832;45.490;4.912;2023-04-01T13:59:02;4.80;;;3.05;;
40122;SDS011;25832;45.490;4.912;2023-04-01T14:02:24;2.53;;;1.45;;
40122;SDS011;25832;45.490;4.912;2023-04-01T14:07:41;4.20;;;3.50;;
40122;SDS011;25832;45.490;4.912;2023-04-01T14:16:13;1.27;;;1.17;;
40122;SDS011;25832;45.490;4.912;2023-04-01T14:19:29;5.05;;;1.70;;
40122;SDS011;25832;45.490;4.912;2023-04-01T14:21:53;0.98;;;0.50;;
40122;SDS011;25832;45.490;4.912;2023-04-01T14:24:42;1.60;;;1.45;;
40122;SDS011;25832;45.490;4.912;2023-04-01T14:40:55;5.38;;;2.05;;
40122;SDS011;25832;45.490;4.912;2023-04-01T14:48:56;1.10;;;0.85;;
40122;SDS011;25832;45.490;4.912;2023-04-01T14:51:28;9.27;;;6.25;;
40122;SDS011;25832;45.490;4.912;2023-04-01T14:54:00;23.20;;;14.13;;
40122;SDS011;25832;45.490;4.912;2023-04-01T14:56:43;6.43;;;4.57;;
40122;SDS011;25832;45.490;4.912;2023-04-01T15:13:04;2.03;;;1.73;;
40122;SDS011;25832;45.490;4.912;2023-04-01T15:18:33;4.43;;;3.17;;
40122;SDS011;25832;45.490;4.912;2023-04-01T15:32:56;1.02;;;0.95;;
40122;SDS011;25832;45.490;4.912;2023-04-01T15:35:33;1.80;;;0.80;;
40122;SDS011;25832;45.490;4.912;2023-04-01T15:49:55;0.75;;;0.55;;
40122;SDS011;25832;45.490;4.912;2023-04-01T16:00:28;1.88;;;0.60;;
40122;SDS011;25832;45.490;4.912;2023-04-01T16:21:43;1.42;;;0.70;;
40122;SDS011;25832;45.490;4.912;2023-04-01T16:24:22;1.38;;;0.60;;
40122;SDS011;25832;45.490;4.912;2023-04-01T16:27:13;3.03;;;1.08;;
40122;SDS011;25832;45.490;4.912;2023-04-01T16:32:54;2.25;;;0.98;;
40122;SDS011;25832;45.490;4.912;2023-04-01T16:35:42;0.85;;;0.30;;
40122;SDS011;25832;45.490;4.912;2023-04-01T16:38:25;1.60;;;0.80;;
40122;SDS011;25832;45.490;4.912;2023-04-01T16:43:28;3.30;;;1.30;;
40122;SDS011;25832;45.490;4.912;2023-04-01T16:49:03;4.70;;;1.63;;
40122;SDS011;25832;45.490;4.912;2023-04-01T16:51:52;0.77;;;0.50;;
40122;SDS011;25832;45.490;4.912;2023-04-01T16:54:39;1.10;;;0.65;;
40122;SDS011;25832;45.490;4.912;2023-04-01T17:07:42;21.40;;;8.95;;
40122;SDS011;25832;45.490;4.912;2023-04-01T17:21:34;2.63;;;1.63;;
40122;SDS011;25832;45.490;4.912;2023-04-01T17:24:05;2.65;;;1.45;;
40122;SDS011;25832;45.490;4.912;2023-04-01T17:45:21;3.00;;;1.23;;
40122;SDS011;25832;45.490;4.912;2023-04-01T17:53:24;4.57;;;0.95;;
40122;SDS011;25832;45.490;4.912;2023-04-01T17:55:59;4.82;;;1.33;;
40122;SDS011;25832;45.490;4.912;2023-04-01T18:13:11;2.03;;;0.90;;
40122;SDS011;25832;45.490;4.912;2023-04-01T18:16:06;2.15;;;1.15;;
40122;SDS011;25832;45.490;4.912;2023-04-01T18:21:46;2.42;;;1.58;;
40122;SDS011;25832;45.490;4.912;2023-04-01T18:24:19;2.28;;;1.33;;
40122;SDS011;25832;45.490;4.912;2023-04-01T18:27:04;4.70;;;2.10;;
40122;SDS011;25832;45.490;4.912;2023-04-01T18:29:55;3.10;;;2.17;;
40122;SDS011;25832;45.490;4.912;2023-04-01T18:32:57;8.93;;;5.13;;
40122;SDS011;25832;45.490;4.912;2023-04-01T18:35:27;2.78;;;1.63;;
40122;SDS011;25832;45.490;4.912;2023-04-01T18:38:13;1.65;;;0.68;;
40122;SDS011;25832;45.490;4.912;2023-04-01T18:41:08;2.13;;;0.47;;
40122;SDS011;25832;45.490;4.912;2023-04-01T18:43:49;2.53;;;1.40;;
40122;SDS011;25832;45.490;4.912;2023-04-01T18:51:55;0.50;;;0.32;;
40122;SDS011;25832;45.490;4.912;2023-04-01T18:54:27;0.57;;;0.50;;
40122;SDS011;25832;45.490;4.912;2023-04-01T18:57:13;5.25;;;3.45;;
40122;SDS011;25832;45.490;4.912;2023-04-01T18:59:42;4.78;;;2.70;;
40122;SDS011;25832;45.490;4.912;2023-04-01T19:07:49;1.52;;;0.90;;
40122;SDS011;25832;45.490;4.912;2023-04-01T19:10:23;1.10;;;0.98;;
40122;SDS011;25832;45.490;4.912;2023-04-01T19:26:39;2.05;;;1.10;;
40122;SDS011;25832;45.490;4.912;2023-04-01T19:32:36;5.07;;;3.58;;
40122;SDS011;25832;45.490;4.912;2023-04-01T19:37:39;4.13;;;2.75;;
40122;SDS011;25832;45.490;4.912;2023-04-01T19:42:44;1.80;;;0.70;;
40122;SDS011;25832;45.490;4.912;2023-04-01T19:45:36;2.05;;;1.80;;
40122;SDS011;25832;45.490;4.912;2023-04-01T19:57:09;3.72;;;2.00;;
40122;SDS011;25832;45.490;4.912;2023-04-01T19:59:50;3.80;;;1.73;;
40122;SDS011;25832;45.490;4.912;2023-04-01T20:11:30;4.38;;;2.00;;
40122;SDS011;25832;45.490;4.912;2023-04-01T20:14:47;2.15;;;1.58;;
40122;SDS011;25832;45.490;4.912;2023-04-01T20:22:29;4.13;;;2.03;;
40122;SDS011;25832;45.490;4.912;2023-04-01T20:25:17;4.50;;;1.92;;
40122;SDS011;25832;45.490;4.912;2023-04-01T20:27:54;2.05;;;1.33;;
40122;SDS011;25832;45.490;4.912;2023-04-01T20:30:34;3.78;;;1.60;;
40122;SDS011;25832;45.490;4.912;2023-04-01T20:37:18;3.33;;;1.23;;
40122;SDS011;25832;45.490;4.912;2023-04-01T20:45:32;4.65;;;3.22;;
40122;SDS011;25832;45.490;4.912;2023-04-01T20:48:44;6.57;;;3.50;;
40122;SDS011;25832;45.490;4.912;2023-04-01T20:51:30;6.88;;;3.78;;
40122;SDS011;25832;45.490;4.912;2023-04-01T20:56:42;9.20;;;6.40;;
40122;SDS011;25832;45.490;4.912;2023-04-01T21:07:41;6.70;;;4.72;;
40122;SDS011;25832;45.490;4.912;2023-04-01T21:33:16;6.05;;;4.45;;
40122;SDS011;25832;45.490;4.912;2023-04-01T21:42:15;13.48;;;4.63;;
40122;SDS011;25832;45.490;4.912;2023-04-01T22:07:35;8.13;;;4.60;;
40122;SDS011;25832;45.490;4.912;2023-04-01T22:10:19;6.00;;;4.28;;
40122;SDS011;25832;45.490;4.912;2023-04-01T22:15:51;6.43;;;4.97;;
40122;SDS011;25832;45.490;4.912;2023-04-01T22:18:39;7.10;;;4.47;;
40122;SDS011;25832;45.490;4.912;2023-04-01T22:21:20;7.05;;;4.32;;
40122;SDS011;25832;45.490;4.912;2023-04-01T22:26:32;5.90;;;3.70;;
40122;SDS011;25832;45.490;4.912;2023-04-01T22:31:52;4.35;;;3.58;;
40122;SDS011;25832;45.490;4.912;2023-04-01T22:37:01;5.07;;;2.75;;
40122;SDS011;25832;45.490;4.912;2023-04-01T22:42:36;8.82;;;5.15;;
40122;SDS011;25832;45.490;4.912;2023-04-01T22:50:20;10.90;;;5.40;;
40122;SDS011;25832;45.490;4.912;2023-04-01T22:52:59;10.15;;;6.15;;
40122;SDS011;25832;45.490;4.912;2023-04-01T22:55:47;7.45;;;5.40;;
40122;SDS011;25832;45.490;4.912;2023-04-01T22:58:26;9.68;;;5.35;;
40122;SDS011;25832;45.490;4.912;2023-04-01T23:00:59;7.22;;;4.68;;
40122;SDS011;25832;45.490;4.912;2023-04-01T23:03:31;10.65;;;5.13;;
40122;SDS011;25832;45.490;4.912;2023-04-01T23:05:59;6.47;;;4.65;;
40122;SDS011;25832;45.490;4.912;2023-04-01T23:08:32;7.65;;;4.80;;
40122;SDS011;25832;45.490;4.912;2023-04-01T23:11:25;6.85;;;4.72;;
40122;SDS011;25832;45.490;4.912;2023-04-01T23:16:50;7.80;;;4.80;;
40122;SDS011;25832;45.490;4.912;2023-04-01T23:19:23;6.70;;;4.70;;
40122;SDS011;25832;45.490;4.912;2023-04-01T23:22:02;5.97;;;4.60;;
40122;SDS011;25832;45.490;4.912;2023-04-01T23:24:36;11.63;;;6.32;;
40122;SDS011;25832;45.490;4.912;2023-04-01T23:28:14;7.40;;;5.18;;
40122;SDS011;25832;45.490;4.912;2023-04-01T23:38:40;6.72;;;4.22;;
40122;SDS011;25832;45.490;4.912;2023-04-01T23:41:07;6.47;;;4.32;;
40122;SDS011;25832;45.490;4.912;2023-04-01T23:43:43;6.43;;;4.40;;
40122;SDS011;25832;45.490;4.912;2023-04-01T23:46:10;5.00;;;2.22;;
40122;SDS011;25832;45.490;4.912;2023-04-01T23:48:41;4.40;;;2.00;;
40122;SDS011;25832;45.490;4.912;2023-04-01T23:51:28;4.18;;;1.77;;
40122;SDS011;25832;45.490;4.912;2023-04-01T23:56:39;3.08;;;1.58;;
40122;SDS011;25832;45.490;4.912;2023-04-01T23:59:11;3.13;;;2.35;;
